Time;durP1;ratioP1;P1;durP2;ratioP2;P2;SDS_P1;SDS_P2;PMS_P1;PMS_P2;Temp;Humidity;BMP_temperature;BMP_pressure;BME280_temperature;BME280_humidity;BME280_pressure;Samples;Min_cycle;Max_cycle;Signal;HPM_P1;HPM_P2
2022/11/06 00:00:38;;;;;;;0.10;0.10;;;;;;;;;;4985173;28;20613;-79
2022/11/06 00:03:06;;;;;;;0.10;0.10;;;;;;;;;;4975685;28;20693;-79
2022/11/06 00:08:26;;;;;;;0.10;0.10;;;;;;;;;;4982547;28;20631;-76
2022/11/06 00:10:54;;;;;;;0.00;0.00;;;;;;;;;;4972317;28;20714;-76
2022/11/06 00:13:22;;;;;;;0.10;0.10;;;;;;;;;;4982042;28;20648;-77
2022/11/06 00:15:50;;;;;;;0.10;0.10;;;;;;;;;;4972902;28;20629;-76
2022/11/06 00:18:17;;;;;;;0.10;0.10;;;;;;;;;;4973580;28;20621;-76
2022/11/06 00:20:45;;;;;;;0.00;0.00;;;;;;;;;;4979955;28;20706;-77
2022/11/06 00:23:12;;;;;;;0.10;0.10;;;;;;;;;;4971420;28;20697;-76
2022/11/06 00:25:40;;;;;;;0.10;0.10;;;;;;;;;;4978907;28;20669;-76
2022/11/06 00:28:08;;;;;;;0.00;0.00;;;;;;;;;;4974448;28;20627;-77
2022/11/06 00:30:36;;;;;;;0.10;0.10;;;;;;;;;;4980471;28;20703;-76
2022/11/06 00:33:04;;;;;;;0.10;0.10;;;;;;;;;;4974447;28;20680;-77
2022/11/06 00:35:32;;;;;;;0.10;0.10;;;;;;;;;;4991118;28;21003;-76
2022/11/06 00:37:59;;;;;;;0.10;0.10;;;;;;;;;;4982133;28;20970;-76
2022/11/06 00:40:26;;;;;;;0.00;0.00;;;;;;;;;;4980390;28;20628;-77
2022/11/06 00:42:55;;;;;;;0.10;0.10;;;;;;;;;;4979600;28;20791;-76
2022/11/06 00:45:22;;;;;;;0.00;0.00;;;6.90;99.90;;;;;;4978125;28;20715;-76
2022/11/06 00:47:51;;;;;;;0.10;0.10;;;6.90;99.90;;;;;;4971959;28;20719;-76
2022/11/06 00:50:19;;;;;;;0.10;0.10;;;6.90;99.90;;;;;;4972020;28;20634;-77
2022/11/06 00:52:46;;;;;;;0.10;0.10;;;6.90;99.90;;;;;;4972721;28;20659;-76
2022/11/06 00:55:13;;;;;;;0.10;0.10;;;6.80;99.90;;;;;;4974473;28;20644;-74
2022/11/06 00:57:40;;;;;;;0.00;0.00;;;6.70;99.90;;;;;;4988301;28;20683;-75
2022/11/06 01:00:10;;;;;;;0.10;0.10;;;6.80;99.90;;;;;;4968203;28;20768;-75
2022/11/06 01:02:38;;;;;;;0.10;0.10;;;6.80;99.90;;;;;;4975454;28;20655;-78
2022/11/06 01:05:07;;;;;;;0.10;0.10;;;6.80;99.90;;;;;;5015204;28;20975;-77
2022/11/06 01:07:34;;;;;;;0.00;0.00;;;6.80;99.90;;;;;;4972997;28;20691;-77
2022/11/06 01:10:01;;;;;;;0.10;0.10;;;7.00;99.90;;;;;;4984817;28;20623;-76
2022/11/06 01:12:30;;;;;;;0.10;0.10;;;6.80;99.90;;;;;;4978677;28;20717;-75
2022/11/06 01:14:57;;;;;;;0.00;0.00;;;6.80;99.90;;;;;;4969332;28;20629;-75
2022/11/06 01:17:25;;;;;;;0.00;0.00;;;6.80;99.90;;;;;;4969180;28;20690;-75
2022/11/06 01:19:52;;;;;;;0.10;0.10;;;6.80;99.90;;;;;;4971306;28;20727;-74
2022/11/06 01:22:20;;;;;;;0.10;0.10;;;6.80;99.90;;;;;;4973343;28;20660;-75
2022/11/06 01:24:47;;;;;;;0.10;0.10;;;6.70;99.90;;;;;;4975051;28;20637;-78
2022/11/06 01:27:14;;;;;;;0.10;0.10;;;6.80;99.90;;;;;;4976049;28;20641;-78
2022/11/06 01:29:41;;;;;;;0.10;0.10;;;6.60;99.90;;;;;;4974682;28;20691;-75
2022/11/06 01:32:08;;;;;;;0.10;0.10;;;6.60;99.90;;;;;;4985541;28;20673;-75
2022/11/06 01:34:36;;;;;;;0.10;0.10;;;;;;;;;;4970693;28;20712;-75
2022/11/06 01:37:03;;;;;;;0.10;0.10;;;6.70;99.90;;;;;;4978850;28;20659;-75
2022/11/06 01:39:32;;;;;;;0.10;0.10;;;6.70;99.90;;;;;;4987385;28;20636;-75
2022/11/06 01:41:59;;;;;;;0.10;0.10;;;6.70;99.90;;;;;;4988185;28;20668;-76
2022/11/06 01:45:15;;;;;;;0.10;0.10;;;6.60;99.90;;;;;;4987007;28;20669;-75
2022/11/06 01:47:43;;;;;;;0.10;0.10;;;6.60;99.90;;;;;;4986156;28;20639;-75
2022/11/06 01:50:13;;;;;;;0.10;0.10;;;6.60;99.90;;;;;;4979589;28;20604;-75
2022/11/06 01:52:41;;;;;;;0.10;0.10;;;6.60;99.90;;;;;;4974556;28;20703;-75
2022/11/06 01:55:14;;;;;;;0.10;0.10;;;6.60;99.90;;;;;;4977872;28;20659;-75
2022/11/06 01:57:42;;;;;;;0.10;0.10;;;6.50;99.90;;;;;;4968960;28;20643;-76
2022/11/06 02:00:10;;;;;;;0.10;0.10;;;6.60;99.90;;;;;;4979766;28;20643;-75
2022/11/06 02:02:38;;;;;;;0.10;0.10;;;6.50;99.90;;;;;;4987976;28;20668;-74
2022/11/06 02:05:06;;;;;;;0.10;0.10;;;6.50;99.90;;;;;;5009149;28;20676;-75
2022/11/06 02:07:34;;;;;;;0.10;0.10;;;6.50;99.90;;;;;;4979870;28;20616;-75
2022/11/06 02:10:02;;;;;;;0.10;0.10;;;6.60;99.90;;;;;;4971648;28;20623;-75
2022/11/06 02:12:50;;;;;;;0.00;0.00;;;6.50;99.90;;;;;;4969644;28;20672;-75
2022/11/06 02:15:25;;;;;;;0.10;0.10;;;6.50;99.90;;;;;;4978204;28;20640;-76
2022/11/06 02:18:23;;;;;;;0.10;0.10;;;6.50;99.90;;;;;;4986873;28;20620;-76
2022/11/06 02:21:11;;;;;;;0.10;0.10;;;6.50;99.90;;;;;;4968114;28;20652;-75
2022/11/06 02:23:55;;;;;;;0.10;0.10;;;6.50;99.90;;;;;;4968247;28;20660;-76
2022/11/06 02:26:37;;;;;;;0.10;0.10;;;6.50;99.90;;;;;;4968287;28;20628;-75
2022/11/06 02:29:10;;;;;;;0.10;0.10;;;6.40;99.90;;;;;;4969785;28;20732;-76
2022/11/06 02:31:41;;;;;;;0.10;0.10;;;6.50;99.90;;;;;;4970768;28;20674;-76
2022/11/06 02:34:11;;;;;;;0.10;0.10;;;6.40;99.90;;;;;;4977352;28;20609;-75
2022/11/06 02:36:44;;;;;;;0.00;0.00;;;6.40;99.90;;;;;;4978586;28;20706;-75
2022/11/06 02:39:13;;;;;;;0.10;0.10;;;;;;;;;;4966940;28;20629;-75
2022/11/06 02:41:43;;;;;;;0.10;0.10;;;;;;;;;;4978050;28;20781;-75
2022/11/06 02:44:13;;;;;;;0.10;0.10;;;;;;;;;;4976983;28;20653;-76
2022/11/06 02:46:42;;;;;;;0.10;0.10;;;;;;;;;;4969551;28;20651;-76
2022/11/06 02:49:12;;;;;;;0.10;0.10;;;;;;;;;;4979723;28;20648;-75
2022/11/06 02:51:43;;;;;;;0.10;0.10;;;;;;;;;;4977389;28;20780;-75
2022/11/06 02:54:11;;;;;;;0.10;0.10;;;;;;;;;;4969802;28;20640;-75
2022/11/06 02:56:42;;;;;;;0.10;0.10;;;;;;;;;;4978267;28;20631;-75
2022/11/06 02:59:13;;;;;;;0.00;0.00;;;;;;;;;;4971231;28;20636;-74
2022/11/06 03:01:44;;;;;;;0.00;0.00;;;;;;;;;;4971339;28;20652;-74
2022/11/06 03:04:15;;;;;;;0.10;0.10;;;;;;;;;;4973946;28;20624;-77
2022/11/06 03:06:45;;;;;;;0.10;0.10;;;;;;;;;;4980501;28;20616;-77
2022/11/06 03:09:15;;;;;;;0.10;0.10;;;;;;;;;;4983383;28;20670;-78
2022/11/06 03:11:42;;;;;;;0.00;0.00;;;;;;;;;;4972635;28;21031;-77
2022/11/06 03:14:13;;;;;;;0.10;0.10;;;;;;;;;;4978499;28;20655;-77
2022/11/06 03:16:45;;;;;;;0.10;0.10;;;;;;;;;;4974977;28;20628;-78
2022/11/06 03:19:16;;;;;;;0.10;0.10;;;;;;;;;;4981709;28;20682;-78
2022/11/06 03:21:49;;;;;;;0.10;0.10;;;;;;;;;;4981698;28;20747;-78
2022/11/06 03:24:18;;;;;;;0.10;0.10;;;;;;;;;;4975124;28;20629;-78
2022/11/06 03:26:48;;;;;;;0.00;0.00;;;;;;;;;;4977019;28;20632;-77
2022/11/06 03:29:21;;;;;;;0.00;0.00;;;;;;;;;;4977113;28;20654;-77
2022/11/06 03:31:50;;;;;;;0.10;0.10;;;;;;;;;;4997833;28;20722;-78
2022/11/06 03:34:22;;;;;;;0.10;0.10;;;;;;;;;;4980619;28;20670;-77
2022/11/06 03:36:53;;;;;;;0.10;0.10;;;;;;;;;;4985540;28;20622;-77
2022/11/06 03:39:23;;;;;;;0.10;0.10;;;;;;;;;;4976348;28;20691;-77
2022/11/06 03:41:54;;;;;;;0.00;0.00;;;;;;;;;;4987443;28;20678;-77
2022/11/06 03:44:25;;;;;;;0.10;0.10;;;;;;;;;;4981287;28;20627;-78
2022/11/06 03:46:54;;;;;;;0.10;0.10;;;;;;;;;;4974805;28;20632;-78
2022/11/06 03:49:23;;;;;;;0.10;0.10;;;;;;;;;;4985950;28;20751;-78
2022/11/06 03:51:53;;;;;;;0.07;0.07;;;;;;;;;;4980641;28;20764;-77
2022/11/06 03:54:22;;;;;;;0.10;0.10;;;;;;;;;;4976998;28;20624;-77
2022/11/06 03:56:54;;;;;;;0.10;0.10;;;;;;;;;;4972087;28;20637;-75
2022/11/06 03:59:24;;;;;;;0.10;0.10;;;;;;;;;;4973594;28;20633;-75
2022/11/06 04:01:54;;;;;;;0.10;0.10;;;;;;;;;;4970455;28;20656;-75
2022/11/06 04:04:24;;;;;;;0.10;0.10;;;;;;;;;;4981697;28;20644;-75
2022/11/06 04:06:54;;;;;;;0.10;0.10;;;;;;;;;;4969683;28;20667;-75
2022/11/06 04:15:02;;;;;;;0.00;0.00;;;;;;;;;;4971604;28;20617;-76
2022/11/06 04:17:30;;;;;;;0.10;0.10;;;;;;;;;;4983959;28;20616;-76
2022/11/06 04:19:59;;;;;;;0.00;0.00;;;;;;;;;;4972833;28;20628;-77
2022/11/06 04:22:41;;;;;;;0.10;0.10;;;;;;;;;;4976833;28;20652;-77
2022/11/06 04:28:12;;;;;;;0.10;0.10;;;;;;;;;;4970008;28;20619;-77
2022/11/06 04:30:44;;;;;;;0.10;0.10;;;;;;;;;;4984618;28;20728;-76
2022/11/06 04:33:14;;;;;;;0.03;0.03;;;;;;;;;;4973265;28;20696;-76
2022/11/06 04:35:48;;;;;;;0.10;0.10;;;;;;;;;;4976517;28;20608;-76
2022/11/06 04:38:21;;;;;;;0.10;0.10;;;;;;;;;;4972992;28;20637;-76
2022/11/06 04:40:52;;;;;;;0.10;0.10;;;;;;;;;;4990483;28;20632;-75
2022/11/06 04:43:22;;;;;;;0.10;0.10;;;;;;;;;;4973729;28;21062;-77
2022/11/06 04:45:54;;;;;;;0.00;0.00;;;;;;;;;;4981877;28;20604;-77
2022/11/06 04:48:23;;;;;;;0.10;0.10;;;;;;;;;;4973456;28;20632;-76
2022/11/06 04:50:51;;;;;;;0.07;0.07;;;;;;;;;;4982579;28;20700;-77
2022/11/06 04:53:19;;;;;;;0.10;0.10;;;;;;;;;;4979462;28;20661;-76
2022/11/06 04:55:47;;;;;;;0.10;0.10;;;;;;;;;;4975739;28;20697;-76
2022/11/06 04:58:15;;;;;;;0.00;0.00;;;;;;;;;;4971674;28;20647;-77
2022/11/06 05:00:45;;;;;;;0.10;0.10;;;;;;;;;;4982924;28;20615;-76
2022/11/06 05:03:14;;;;;;;0.10;0.10;;;;;;;;;;4980398;28;20648;-76
2022/11/06 05:05:42;;;;;;;0.08;0.08;;;;;;;;;;4971344;28;20770;-76
2022/11/06 05:08:13;;;;;;;0.03;0.03;;;;;;;;;;4972434;28;20225;-75
2022/11/06 05:10:41;;;;;;;0.10;0.10;;;;;;;;;;4973784;28;20627;-76
2022/11/06 05:13:08;;;;;;;0.10;0.10;;;;;;;;;;4978853;28;20750;-77
2022/11/06 05:15:36;;;;;;;0.10;0.10;;;;;;;;;;4971624;28;20620;-76
2022/11/06 05:18:04;;;;;;;0.00;0.00;;;;;;;;;;4972160;28;20632;-77
2022/11/06 05:20:33;;;;;;;0.10;0.10;;;;;;;;;;4977816;28;20624;-76
2022/11/06 05:22:59;;;;;;;0.10;0.10;;;;;;;;;;4974201;28;20655;-76
2022/11/06 05:25:28;;;;;;;0.10;0.10;;;;;;;;;;4970786;28;20691;-76
2022/11/06 05:27:56;;;;;;;0.10;0.10;;;;;;;;;;4972706;28;20697;-76
2022/11/06 05:30:23;;;;;;;0.10;0.10;;;;;;;;;;4977603;28;20628;-76
2022/11/06 05:32:50;;;;;;;0.00;0.00;;;;;;;;;;4995659;28;20665;-77
2022/11/06 05:35:19;;;;;;;0.03;0.03;;;;;;;;;;4980352;28;20671;-77
2022/11/06 05:37:48;;;;;;;0.00;0.00;;;;;;;;;;4969966;28;20636;-77
2022/11/06 05:40:15;;;;;;;0.10;0.10;;;;;;;;;;4979764;28;20648;-77
2022/11/06 05:42:43;;;;;;;0.00;0.00;;;;;;;;;;4980636;28;20651;-77
2022/11/06 05:45:12;;;;;;;0.10;0.10;;;;;;;;;;4979845;28;20616;-76
2022/11/06 05:47:43;;;;;;;0.10;0.10;;;;;;;;;;4968250;28;20642;-76
2022/11/06 05:50:11;;;;;;;0.00;0.00;;;;;;;;;;4980826;28;20622;-76
2022/11/06 05:52:39;;;;;;;0.10;0.10;;;;;;;;;;4978432;28;20660;-76
2022/11/06 05:55:08;;;;;;;0.10;0.10;;;;;;;;;;4980812;28;20617;-77
2022/11/06 05:57:36;;;;;;;0.00;0.00;;;;;;;;;;4969766;28;20695;-76
2022/11/06 06:00:05;;;;;;;0.10;0.10;;;;;;;;;;4971945;28;20631;-77
2022/11/06 06:02:40;;;;;;;0.10;0.10;;;;;;;;;;4979895;28;20641;-76
2022/11/06 06:05:08;;;;;;;0.10;0.10;;;;;;;;;;4980396;28;20614;-76
2022/11/06 06:07:36;;;;;;;0.10;0.10;;;;;;;;;;4969778;28;20759;-77
2022/11/06 06:10:03;;;;;;;0.00;0.00;;;;;;;;;;4969060;28;20671;-77
2022/11/06 06:12:32;;;;;;;0.10;0.10;;;;;;;;;;4969303;28;20668;-76
2022/11/06 06:15:00;;;;;;;0.00;0.00;;;;;;;;;;4979889;28;20608;-76
2022/11/06 06:17:27;;;;;;;0.10;0.10;;;;;;;;;;4970198;28;20628;-77
2022/11/06 06:19:54;;;;;;;0.10;0.10;;;;;;;;;;4971747;28;20632;-77
2022/11/06 06:22:22;;;;;;;0.10;0.10;;;;;;;;;;4969556;28;20665;-76
2022/11/06 06:24:50;;;;;;;0.00;0.00;;;;;;;;;;4969986;28;20727;-77
2022/11/06 06:27:18;;;;;;;0.00;0.00;;;;;;;;;;4970986;28;20678;-76
2022/11/06 06:29:47;;;;;;;0.10;0.10;;;;;;;;;;4976544;28;20632;-77
2022/11/06 06:32:15;;;;;;;0.10;0.10;;;;;;;;;;4971056;28;20664;-76
2022/11/06 06:34:42;;;;;;;0.10;0.10;;;;;;;;;;4980044;28;20608;-77
2022/11/06 06:37:11;;;;;;;0.10;0.10;;;;;;;;;;4971330;28;20747;-77
2022/11/06 06:39:38;;;;;;;0.10;0.10;;;;;;;;;;4979883;28;20682;-77
2022/11/06 06:42:05;;;;;;;0.10;0.10;;;;;;;;;;4968306;28;20664;-77
2022/11/06 06:44:33;;;;;;;0.10;0.10;;;;;;;;;;4973052;28;21137;-77
2022/11/06 06:47:01;;;;;;;0.10;0.10;;;;;;;;;;4977700;28;20607;-77
2022/11/06 06:49:29;;;;;;;0.10;0.10;;;;;;;;;;5011108;28;20633;-77
2022/11/06 06:51:56;;;;;;;0.10;0.10;;;;;;;;;;5010128;28;20656;-77
2022/11/06 06:54:24;;;;;;;0.10;0.10;;;;;;;;;;4974491;28;20726;-79
2022/11/06 06:56:51;;;;;;;0.10;0.10;;;;;;;;;;4992386;28;20636;-80
2022/11/06 06:59:19;;;;;;;0.10;0.10;;;;;;;;;;4980686;28;20628;-78
2022/11/06 07:01:47;;;;;;;0.10;0.10;;;;;;;;;;4995385;28;20675;-75
2022/11/06 07:04:16;;;;;;;0.10;0.10;;;;;;;;;;4968685;28;20624;-75
2022/11/06 07:06:43;;;;;;;0.03;0.03;;;;;;;;;;4977640;28;20727;-76
2022/11/06 07:09:11;;;;;;;0.10;0.10;;;;;;;;;;4972837;28;20632;-77
2022/11/06 07:11:38;;;;;;;0.00;0.00;;;;;;;;;;4979161;28;20695;-77
2022/11/06 07:14:06;;;;;;;0.00;0.00;;;;;;;;;;4971909;28;20664;-78
2022/11/06 07:16:34;;;;;;;0.10;0.10;;;;;;;;;;4970026;28;20632;-77
2022/11/06 07:19:01;;;;;;;0.10;0.10;;;;;;;;;;4979307;28;20632;-77
2022/11/06 07:21:31;;;;;;;0.10;0.10;;;;;;;;;;4974259;28;20660;-78
2022/11/06 07:23:58;;;;;;;0.10;0.10;;;;;;;;;;4980481;28;20613;-76
2022/11/06 07:26:25;;;;;;;0.10;0.10;;;;;;;;;;4971311;28;20632;-77
2022/11/06 07:28:53;;;;;;;0.10;0.10;;;;;;;;;;4987419;28;20720;-77
2022/11/06 07:31:20;;;;;;;0.10;0.10;;;;;;;;;;4972344;28;20804;-77
2022/11/06 07:33:48;;;;;;;0.10;0.10;;;;;;;;;;4969471;28;20768;-77
2022/11/06 07:36:16;;;;;;;0.10;0.10;;;;;;;;;;4979145;28;20655;-77
2022/11/06 07:38:45;;;;;;;0.10;0.10;;;;;;;;;;4967650;28;20633;-76
2022/11/06 07:41:14;;;;;;;0.10;0.10;;;;;;;;;;4978585;28;20621;-76
2022/11/06 07:43:41;;;;;;;0.10;0.10;;;;;;;;;;4972323;28;20624;-77
2022/11/06 07:46:11;;;;;;;0.07;0.07;;;;;;;;;;4965020;28;20636;-81
2022/11/06 07:48:39;;;;;;;0.00;0.00;;;;;;;;;;4975046;28;20640;-77
2022/11/06 07:51:09;;;;;;;0.00;0.00;;;;;;;;;;4973627;28;20742;-75
2022/11/06 07:53:37;;;;;;;0.10;0.10;;;;;;;;;;4970137;28;20672;-75
2022/11/06 07:56:07;;;;;;;0.10;0.10;;;;;;;;;;4977482;28;20629;-74
2022/11/06 07:58:35;;;;;;;0.00;0.00;;;;;;;;;;4969523;28;20731;-76
2022/11/06 08:01:03;;;;;;;0.00;0.00;;;;;;;;;;4970160;28;20617;-76
2022/11/06 08:03:31;;;;;;;0.00;0.00;;;;;;;;;;4969492;28;20617;-76
2022/11/06 08:05:58;;;;;;;0.03;0.03;;;;;;;;;;4978511;28;20609;-76
2022/11/06 08:08:26;;;;;;;0.10;0.10;;;;;;;;;;4970968;28;20693;-77
2022/11/06 08:10:53;;;;;;;0.10;0.10;;;;;;;;;;4986967;28;20634;-77
2022/11/06 08:13:24;;;;;;;0.00;0.00;;;;;;;;;;4974849;28;21311;-76
2022/11/06 08:15:52;;;;;;;0.07;0.07;;;9.60;99.90;;;;;;4974076;28;20951;-77
2022/11/06 08:18:19;;;;;;;0.07;0.07;;;9.90;99.90;;;;;;4991650;28;21240;-77
2022/11/06 08:20:46;;;;;;;0.10;0.10;;;10.00;99.90;;;;;;4980659;28;20623;-77
2022/11/06 08:23:17;;;;;;;0.10;0.10;;;;;;;;;;4973625;28;20726;-76
2022/11/06 08:25:45;;;;;;;0.03;0.03;;;;;;;;;;4973224;28;20719;-75
2022/11/06 08:28:12;;;;;;;0.10;0.10;;;;;;;;;;4980534;28;20623;-75
2022/11/06 08:30:41;;;;;;;0.10;0.10;;;;;;;;;;4968588;28;20654;-76
2022/11/06 08:33:08;;;;;;;0.10;0.10;;;10.60;99.90;;;;;;4970716;28;20669;-75
2022/11/06 08:35:35;;;;;;;0.10;0.10;;;10.70;99.90;;;;;;4978288;28;20604;-76
2022/11/06 08:38:03;;;;;;;0.00;0.00;;;10.70;99.90;;;;;;4980055;28;20622;-76
2022/11/06 08:40:31;;;;;;;0.10;0.10;;;;;;;;;;4973222;28;20638;-76
2022/11/06 08:43:01;;;;;;;0.10;0.10;;;;;;;;;;4973892;28;20656;-76
2022/11/06 08:45:30;;;;;;;0.10;0.10;;;10.90;99.90;;;;;;4979507;28;20631;-77
2022/11/06 08:48:03;;;;;;;0.00;0.00;;;11.00;99.90;;;;;;4977147;28;20619;-76
2022/11/06 08:50:31;;;;;;;0.10;0.10;;;11.10;99.90;;;;;;4971090;28;20631;-76
2022/11/06 08:52:59;;;;;;;0.10;0.10;;;11.10;99.90;;;;;;4978189;28;20695;-76
2022/11/06 08:55:27;;;;;;;0.10;0.10;;;;;;;;;;4979685;28;20635;-75
2022/11/06 08:57:55;;;;;;;0.00;0.00;;;11.10;99.90;;;;;;4969431;28;20629;-76
2022/11/06 09:00:23;;;;;;;0.00;0.00;;;11.20;99.90;;;;;;4975220;28;20643;-77
2022/11/06 09:02:51;;;;;;;0.10;0.10;;;11.30;99.90;;;;;;4968441;28;20653;-76
2022/11/06 09:05:19;;;;;;;0.00;0.00;;;11.30;99.90;;;;;;4974725;28;20631;-76
2022/11/06 09:07:50;;;;;;;0.10;0.10;;;;;;;;;;4987076;28;20668;-76
2022/11/06 09:10:17;;;;;;;0.10;0.10;;;;;;;;;;4979025;28;20615;-76
2022/11/06 09:12:45;;;;;;;0.10;0.10;;;;;;;;;;4971976;28;20664;-76
2022/11/06 09:15:12;;;;;;;0.00;0.00;;;;;;;;;;4981522;28;20616;-76
2022/11/06 09:17:43;;;;;;;0.10;0.10;;;;;;;;;;4968555;28;20205;-77
2022/11/06 09:20:11;;;;;;;0.00;0.00;;;11.40;99.90;;;;;;4972387;28;20646;-76
2022/11/06 09:22:40;;;;;;;0.03;0.03;;;11.70;99.90;;;;;;4962848;28;20665;-78
2022/11/06 09:25:09;;;;;;;0.03;0.03;;;;;;;;;;4976888;28;20444;-76
2022/11/06 09:27:43;;;;;;;0.10;0.10;;;;;;;;;;4970731;28;20650;-78
2022/11/06 09:30:13;;;;;;;0.00;0.00;;;11.70;99.90;;;;;;4972304;28;20205;-76
2022/11/06 09:32:46;;;;;;;0.00;0.00;;;;;;;;;;4973328;28;20652;-76
2022/11/06 09:35:13;;;;;;;0.10;0.10;;;;;;;;;;4976512;28;20221;-76
2022/11/06 09:37:43;;;;;;;0.00;0.00;;;;;;;;;;4971103;28;20632;-75
2022/11/06 09:40:18;;;;;;;0.00;0.00;;;;;;;;;;4974272;28;20740;-80
2022/11/06 09:42:51;;;;;;;0.10;0.10;;;;;;;;;;4972805;28;20227;-77
2022/11/06 09:45:21;;;;;;;0.00;0.00;;;;;;;;;;4972058;28;20643;-77
2022/11/06 09:47:51;;;;;;;0.10;0.10;;;;;;;;;;4970805;28;20209;-77
2022/11/06 09:50:22;;;;;;;4.90;1.53;;;;;;;;;;4989475;28;20190;-76
2022/11/06 09:52:54;;;;;;;0.00;0.00;;;;;;;;;;4973757;28;20234;-77
2022/11/06 09:55:23;;;;;;;0.10;0.10;;;;;;;;;;4971616;28;20205;-76
2022/11/06 09:57:53;;;;;;;0.00;0.00;;;;;;;;;;4968498;28;20640;-76
2022/11/06 10:00:20;;;;;;;0.00;0.00;;;;;;;;;;4969329;28;20206;-77
2022/11/06 10:02:49;;;;;;;0.00;0.00;;;;;;;;;;4975477;28;20228;-75
2022/11/06 10:05:22;;;;;;;0.10;0.10;;;;;;;;;;4975109;28;20202;-76
2022/11/06 10:07:52;;;;;;;0.00;0.00;;;;;;;;;;4967839;28;20197;-75
2022/11/06 10:10:25;;;;;;;0.00;0.00;;;;;;;;;;4967491;28;20206;-75
2022/11/06 10:13:17;;;;;;;0.10;0.10;;;;;;;;;;4983738;28;20225;-75
2022/11/06 10:15:47;;;;;;;0.10;0.10;;;;;;;;;;4954311;28;20220;-75
2022/11/06 10:18:21;;;;;;;0.00;0.00;;;;;;;;;;4965698;28;20248;-76
2022/11/06 10:20:52;;;;;;;0.10;0.10;;;;;;;;;;4974784;28;20198;-76
2022/11/06 10:23:21;;;;;;;0.00;0.00;;;;;;;;;;4976913;28;20233;-76
2022/11/06 10:25:59;;;;;;;0.03;0.03;;;;;;;;;;4965124;28;20206;-75
2022/11/06 10:28:34;;;;;;;0.00;0.00;;;;;;;;;;4963903;28;20201;-76
2022/11/06 10:31:07;;;;;;;0.00;0.00;;;;;;;;;;4976437;28;20227;-75
2022/11/06 10:33:43;;;;;;;0.00;0.00;;;;;;;;;;4975715;28;20263;-75
2022/11/06 10:36:13;;;;;;;0.03;0.03;;;;;;;;;;4971250;28;20205;-76
2022/11/06 10:38:42;;;;;;;0.00;0.00;;;;;;;;;;5005711;28;20214;-76
2022/11/06 10:41:18;;;;;;;0.00;0.00;;;13.50;99.90;;;;;;4975930;28;20208;-76
2022/11/06 10:43:49;;;;;;;0.00;0.00;;;;;;;;;;5004868;28;20193;-75
2022/11/06 10:46:20;;;;;;;0.00;0.00;;;;;;;;;;4970179;28;20229;-75
2022/11/06 10:48:50;;;;;;;0.10;0.10;;;;;;;;;;4971780;28;20333;-77
2022/11/06 10:51:28;;;;;;;0.10;0.10;;;;;;;;;;4980088;28;20299;-77
2022/11/06 10:54:01;;;;;;;0.00;0.00;;;;;;;;;;4976026;28;20213;-75
2022/11/06 10:56:38;;;;;;;0.10;0.10;;;;;;;;;;4972057;28;20227;-76
2022/11/06 10:59:05;;;;;;;0.00;0.00;;;;;;;;;;4976297;28;20276;-75
2022/11/06 11:01:33;;;;;;;0.10;0.10;;;;;;;;;;4975564;28;20221;-76
2022/11/06 11:04:01;;;;;;;0.00;0.00;;;;;;;;;;4971052;28;20663;-76
2022/11/06 11:06:29;;;;;;;0.00;0.00;;;;;;;;;;4976570;28;20200;-75
2022/11/06 11:08:57;;;;;;;0.00;0.00;;;;;;;;;;4972962;28;20205;-76
2022/11/06 11:11:25;;;;;;;0.00;0.00;;;;;;;;;;4992168;28;20217;-76
2022/11/06 11:14:12;;;;;;;0.00;0.00;;;;;;;;;;4969765;28;20758;-76
2022/11/06 11:16:41;;;;;;;0.00;0.00;;;;;;;;;;4969039;28;20210;-76
2022/11/06 11:19:16;;;;;;;0.00;0.00;;;;;;;;;;4983819;28;20233;-78
2022/11/06 11:21:53;;;;;;;0.00;0.00;;;;;;;;;;4978569;28;20315;-76
2022/11/06 11:24:20;;;;;;;0.00;0.00;;;;;;;;;;4968436;28;20284;-76
2022/11/06 11:26:49;;;;;;;0.00;0.00;;;;;;;;;;4978190;28;20202;-77
2022/11/06 11:29:21;;;;;;;0.00;0.00;;;;;;;;;;4978110;28;20201;-77
2022/11/06 11:31:51;;;;;;;0.00;0.00;;;;;;;;;;4977005;28;20594;-77
2022/11/06 11:34:20;;;;;;;0.00;0.00;;;;;;;;;;4986568;28;20221;-77
2022/11/06 11:36:49;;;;;;;0.00;0.00;;;;;;;;;;4969026;28;20206;-77
2022/11/06 11:39:17;;;;;;;0.00;0.00;;;;;;;;;;4971930;28;20205;-77
2022/11/06 11:41:44;;;;;;;0.00;0.00;;;;;;;;;;4976373;28;20291;-77
2022/11/06 11:44:16;;;;;;;0.00;0.00;;;;;;;;;;4977074;28;20197;-77
2022/11/06 11:46:48;;;;;;;0.00;0.00;;;;;;;;;;4980392;28;20211;-77
2022/11/06 11:49:26;;;;;;;0.00;0.00;;;;;;;;;;4982260;28;20197;-76
2022/11/06 11:51:54;;;;;;;0.00;0.00;;;;;;;;;;4974692;28;20224;-75
2022/11/06 11:54:25;;;;;;;0.00;0.00;;;;;;;;;;4980587;28;20228;-78
2022/11/06 11:56:53;;;;;;;0.00;0.00;;;;;;;;;;4975753;28;20202;-77
2022/11/06 11:59:22;;;;;;;0.00;0.00;;;;;;;;;;4981485;28;20204;-77
2022/11/06 12:01:51;;;;;;;0.00;0.00;;;;;;;;;;4971270;28;20296;-79
2022/11/06 12:04:22;;;;;;;0.00;0.00;;;;;;;;;;4983188;28;20225;-78
2022/11/06 12:07:07;;;;;;;0.00;0.00;;;;;;;;;;4972588;28;20201;-80
2022/11/06 12:09:41;;;;;;;0.00;0.00;;;;;;;;;;4976519;28;20263;-78
2022/11/06 12:12:19;;;;;;;0.00;0.00;;;;;;;;;;4976216;28;20229;-79
2022/11/06 12:14:46;;;;;;;0.00;0.00;;;;;;;;;;5014192;28;20225;-79
2022/11/06 12:17:21;;;;;;;0.00;0.00;;;;;;;;;;4978898;28;20209;-77
2022/11/06 12:19:52;;;;;;;0.00;0.00;;;;;;;;;;4970551;28;20296;-77
2022/11/06 12:22:25;;;;;;;0.00;0.00;;;;;;;;;;4977333;28;20246;-77
2022/11/06 12:24:54;;;;;;;0.00;0.00;;;;;;;;;;4973667;28;20194;-78
2022/11/06 12:27:23;;;;;;;0.00;0.00;;;;;;;;;;4978221;28;20726;-78
2022/11/06 12:29:53;;;;;;;0.00;0.00;;;;;;;;;;4975431;28;20213;-77
2022/11/06 12:32:25;;;;;;;0.00;0.00;;;;;;;;;;4976229;28;20221;-78
2022/11/06 12:34:59;;;;;;;0.00;0.00;;;;;;;;;;4975427;28;20224;-77
2022/11/06 12:37:35;;;;;;;0.03;0.03;;;;;;;;;;4991176;28;20201;-77
2022/11/06 12:40:05;;;;;;;0.00;0.00;;;;;;;;;;4975011;28;20278;-77
2022/11/06 12:42:35;;;;;;;0.00;0.00;;;;;;;;;;4974874;28;20233;-77
2022/11/06 12:45:02;;;;;;;0.00;0.00;;;;;;;;;;4971269;28;20289;-76
2022/11/06 12:47:37;;;;;;;0.00;0.00;;;;;;;;;;4967457;28;20205;-76
2022/11/06 12:50:14;;;;;;;0.00;0.00;;;;;;;;;;4991545;28;20259;-77
2022/11/06 12:52:49;;;;;;;0.00;0.00;;;;;;;;;;4967490;28;20225;-76
2022/11/06 12:55:19;;;;;;;0.00;0.00;;;;;;;;;;4979985;28;20352;-76
2022/11/06 12:57:56;;;;;;;0.00;0.00;;;;;;;;;;4979573;28;20279;-76
2022/11/06 13:00:25;;;;;;;0.00;0.00;;;;;;;;;;4986577;28;20612;-75
2022/11/06 13:03:14;;;;;;;0.00;0.00;;;;;;;;;;4987418;28;20663;-77
2022/11/06 13:05:46;;;;;;;0.00;0.00;;;;;;;;;;4938495;28;20255;-75
2022/11/06 13:08:18;;;;;;;0.00;0.00;;;;;;;;;;4970475;28;20198;-77
2022/11/06 13:10:53;;;;;;;0.00;0.00;;;;;;;;;;4979054;28;20607;-76
2022/11/06 13:13:29;;;;;;;0.00;0.00;;;;;;;;;;4986422;28;20227;-76
2022/11/06 13:15:59;;;;;;;0.00;0.00;;;;;;;;;;4971801;28;20225;-75
2022/11/06 13:18:29;;;;;;;0.00;0.00;;;;;;;;;;4980428;28;20213;-75
2022/11/06 13:21:01;;;;;;;0.00;0.00;;;;;;;;;;4994316;28;20233;-81
2022/11/06 13:23:30;;;;;;;0.00;0.00;;;;;;;;;;4979182;28;20202;-77
2022/11/06 13:26:02;;;;;;;0.00;0.00;;;;;;;;;;4969528;28;20196;-77
2022/11/06 13:28:31;;;;;;;0.00;0.00;;;;;;;;;;4981278;28;20197;-77
2022/11/06 13:30:59;;;;;;;0.00;0.00;;;;;;;;;;4979712;28;20218;-78
2022/11/06 13:33:28;;;;;;;0.00;0.00;;;;;;;;;;4988114;28;20259;-77
2022/11/06 13:35:58;;;;;;;0.00;0.00;;;;;;;;;;4975841;28;20228;-77
2022/11/06 13:38:29;;;;;;;0.00;0.00;;;;;;;;;;4990980;28;20218;-77
2022/11/06 13:41:01;;;;;;;0.00;0.00;;;;;;;;;;4969331;28;20757;-76
2022/11/06 13:43:39;;;;;;;0.00;0.00;;;;;;;;;;4972477;28;20214;-78
2022/11/06 13:46:17;;;;;;;0.00;0.00;;;;;;;;;;4995282;28;20194;-76
2022/11/06 13:48:49;;;;;;;0.00;0.00;;;;;;;;;;4971862;28;20264;-78
2022/11/06 13:51:21;;;;;;;0.00;0.00;;;;;;;;;;4971040;28;20390;-75
2022/11/06 13:53:56;;;;;;;0.00;0.00;;;;;;;;;;4971920;28;20208;-79
2022/11/06 13:56:36;;;;;;;0.00;0.00;;;;;;;;;;4976612;28;20196;-79
2022/11/06 13:59:11;;;;;;;0.00;0.00;;;;;;;;;;4988971;28;20236;-77
2022/11/06 14:01:45;;;;;;;0.00;0.00;;;;;;;;;;4971726;28;20252;-76
2022/11/06 14:04:30;;;;;;;0.00;0.00;;;;;;;;;;4975633;28;20201;-76
2022/11/06 14:07:03;;;;;;;0.00;0.00;;;;;;;;;;4988950;28;20216;-76
2022/11/06 14:09:37;;;;;;;0.00;0.00;;;;;;;;;;4971966;28;20229;-75
2022/11/06 14:12:33;;;;;;;0.00;0.00;;;;;;;;;;4996526;28;20255;-77
2022/11/06 14:15:16;;;;;;;0.00;0.00;;;;;;;;;;4980089;28;20216;-77
2022/11/06 14:17:53;;;;;;;0.00;0.00;;;;;;;;;;4970974;28;20212;-77
2022/11/06 14:20:31;;;;;;;0.00;0.00;;;;;;;;;;4972991;28;20211;-77
2022/11/06 14:23:14;;;;;;;0.00;0.00;;;;;;;;;;4972033;28;20289;-77
2022/11/06 14:26:00;;;;;;;0.00;0.00;;;;;;;;;;4974602;28;20197;-76
2022/11/06 14:28:38;;;;;;;0.00;0.00;;;;;;;;;;4970611;28;20213;-76
2022/11/06 14:31:10;;;;;;;0.00;0.00;;;;;;;;;;4992741;28;20202;-77
2022/11/06 14:33:59;;;;;;;0.00;0.00;;;;;;;;;;4989999;28;20217;-76
2022/11/06 14:36:30;;;;;;;0.00;0.00;;;;;;;;;;4983864;28;20260;-77
2022/11/06 14:39:10;;;;;;;0.00;0.00;;;;;;;;;;4979531;28;20202;-77
2022/11/06 14:41:52;;;;;;;0.00;0.00;;;;;;;;;;4972169;28;20787;-78
2022/11/06 14:44:26;;;;;;;0.00;0.00;;;;;;;;;;4970397;28;20206;-79
2022/11/06 14:46:56;;;;;;;0.00;0.00;;;;;;;;;;4983396;28;20205;-77
2022/11/06 14:49:27;;;;;;;0.00;0.00;;;;;;;;;;4973034;28;20562;-78
2022/11/06 14:52:00;;;;;;;0.00;0.00;;;;;;;;;;5009580;28;20223;-77